Time;durP1;ratioP1;P1;durP2;ratioP2;P2;SDS_P1;SDS_P2;PMS_P1;PMS_P2;Temp;Humidity;BMP_temperature;BMP_pressure;BME280_temperature;BME280_humidity;BME280_pressure;Samples;Min_cycle;Max_cycle;Signal;HPM_P1;HPM_P2
2023/12/25 00:01:24;;;;;;;11.32;7.47;;;;;;;7.00;71.99;99080.22;4444982;32;20164;-78
2023/12/25 00:03:55;;;;;;;10.57;7.97;;;;;;;7.03;72.05;99092.34;4451346;32;20159;-78
2023/12/25 00:06:24;;;;;;;11.65;8.80;;;;;;;7.29;71.03;99125.69;4451146;32;20179;-78
2023/12/25 00:08:53;;;;;;;12.00;9.45;;;;;;;7.32;70.70;99124.63;4451183;32;20439;-77
2023/12/25 00:11:22;;;;;;;11.10;9.20;;;;;;;6.96;71.58;99110.34;4444588;32;20180;-78
2023/12/25 00:13:54;;;;;;;11.82;8.90;;;;;;;6.83;72.47;99106.88;4451458;32;20199;-78
2023/12/25 00:16:26;;;;;;;11.68;9.10;;;;;;;6.94;71.62;99107.00;4451024;32;20152;-78
2023/12/25 00:18:56;;;;;;;13.80;10.25;;;;;;;6.65;72.97;99115.03;4451219;32;20543;-78
2023/12/25 00:21:26;;;;;;;13.62;10.57;;;;;;;6.76;72.24;99106.41;4444715;32;20164;-78
2023/12/25 00:23:55;;;;;;;15.13;10.95;;;;;;;6.60;72.87;99103.09;4451170;32;20164;-77
2023/12/25 00:26:24;;;;;;;11.93;9.88;;;;;;;6.86;71.86;99102.25;4451435;32;20148;-78
2023/12/25 00:28:56;;;;;;;12.90;9.20;;;;;;;6.96;71.72;99098.97;4451342;32;20191;-78
2023/12/25 00:31:27;;;;;;;13.02;9.82;;;;;;;7.09;71.05;99092.81;4444743;32;20172;-78
2023/12/25 00:33:56;;;;;;;12.50;9.15;;;;;;;7.30;70.12;99084.38;4451179;32;20532;-78
2023/12/25 00:36:25;;;;;;;16.55;9.68;;;;;;;7.05;70.94;99085.22;4451006;32;20171;-79
2023/12/25 00:38:54;;;;;;;11.12;9.10;;;;;;;7.08;70.92;99090.25;4450996;32;20164;-77
2023/12/25 00:41:30;;;;;;;12.00;8.82;;;;;;;7.11;70.82;99084.78;4444857;32;20167;-78
2023/12/25 00:43:59;;;;;;;14.80;9.02;;;;;;;7.25;70.11;99089.97;4450945;32;20160;-78
2023/12/25 00:46:33;;;;;;;9.52;8.55;;;;;;;7.21;70.11;99099.03;4450826;32;20163;-78
2023/12/25 00:49:02;;;;;;;10.02;8.38;;;;;;;7.26;69.94;99112.72;4450774;32;20739;-78
2023/12/25 00:51:31;;;;;;;12.23;9.85;;;;;;;7.61;68.56;99109.44;4444502;32;20167;-78
2023/12/25 00:54:00;;;;;;;13.52;8.90;;;;;;;7.27;69.75;99109.13;4451230;32;20152;-78
2023/12/25 00:56:29;;;;;;;13.05;9.63;;;;;;;7.23;69.83;99117.34;4451131;32;20151;-78
2023/12/25 00:59:00;;;;;;;15.60;9.93;;;;;;;7.18;70.20;99133.47;4450693;32;20168;-78
2023/12/25 01:01:33;;;;;;;9.85;8.15;;;;;;;7.10;70.10;99134.00;4444352;32;20147;-78
2023/12/25 01:04:03;;;;;;;13.85;8.38;;;;;;;7.00;70.71;99143.44;4450685;32;20195;-78
2023/12/25 01:06:32;;;;;;;12.48;9.40;;;;;;;7.09;70.40;99153.38;4450586;32;20151;-78
2023/12/25 01:09:01;;;;;;;10.18;8.07;;;;;;;7.05;70.39;99172.97;4450795;32;20496;-77
2023/12/25 01:11:31;;;;;;;12.50;8.68;;;;;;;7.06;70.30;99165.91;4445551;32;20528;-77
2023/12/25 01:14:00;;;;;;;11.35;9.50;;;;;;;7.28;69.80;99162.66;4453628;32;20144;-77
2023/12/25 01:16:31;;;;;;;9.98;7.55;;;;;;;7.30;69.40;99176.59;4453521;32;20171;-77
2023/12/25 01:19:03;;;;;;;10.73;8.30;;;;;;;7.22;69.79;99173.62;4450636;32;20195;-78
2023/12/25 01:21:34;;;;;;;11.80;9.23;;;;;;;7.11;70.19;99174.34;4443991;32;20183;-78
2023/12/25 01:24:03;;;;;;;11.85;8.98;;;;;;;7.22;70.02;99169.22;4452382;32;20188;-78
2023/12/25 01:26:32;;;;;;;10.75;8.63;;;;;;;7.22;69.91;99153.41;4452586;32;20136;-78
2023/12/25 01:29:01;;;;;;;11.88;9.05;;;;;;;7.31;69.57;99162.47;4453268;32;20160;-78
2023/12/25 01:31:32;;;;;;;9.45;8.15;;;;;;;7.22;69.81;99157.81;4445979;32;20164;-78
2023/12/25 01:34:01;;;;;;;9.35;7.72;;;;;;;7.26;69.62;99164.59;4452373;32;20179;-78
2023/12/25 01:36:30;;;;;;;11.90;7.85;;;;;;;7.28;69.54;99174.03;4452453;32;20179;-77
2023/12/25 01:39:00;;;;;;;10.98;9.32;;;;;;;7.43;69.11;99177.44;4452684;32;20148;-77
2023/12/25 01:41:30;;;;;;;10.45;8.68;;;;;;;7.32;69.06;99174.69;4449839;32;20504;-78
2023/12/25 01:43:59;;;;;;;12.20;9.65;;;;;;;6.99;70.11;99197.06;4455531;32;20140;-79
2023/12/25 01:46:36;;;;;;;11.80;9.40;;;;;;;7.10;69.80;99164.75;4455180;32;20175;-78
2023/12/25 01:49:07;;;;;;;11.50;8.88;;;;;;;7.08;69.90;99167.47;4452205;32;20461;-78
2023/12/25 01:51:36;;;;;;;10.23;8.32;;;;;;;7.28;69.14;99157.41;4445696;32;20148;-78
2023/12/25 01:54:07;;;;;;;11.95;9.25;;;;;;;7.04;70.01;99157.25;4452155;32;20179;-78
2023/12/25 01:56:36;;;;;;;13.13;10.15;;;;;;;7.35;68.92;99170.06;4452463;32;20176;-78
2023/12/25 01:59:06;;;;;;;15.35;10.95;;;;;;;7.02;69.82;99181.06;4452139;32;20448;-78
2023/12/25 02:01:39;;;;;;;13.77;10.23;;;;;;;7.12;69.52;99192.66;4445649;32;20167;-78
2023/12/25 02:04:08;;;;;;;12.40;9.90;;;;;;;7.11;69.66;99190.16;4452432;32;20751;-78
2023/12/25 02:06:38;;;;;;;12.50;9.85;;;;;;;6.60;71.53;99175.03;4451995;32;20441;-78
2023/12/25 02:09:10;;;;;;;15.68;10.25;;;;;;;7.31;69.24;99181.75;4452023;32;20259;-78
2023/12/25 02:11:41;;;;;;;12.48;10.45;;;;;;;6.94;70.43;99200.97;4445900;32;20259;-78
2023/12/25 02:14:12;;;;;;;14.23;11.55;;;;;;;6.75;71.60;99210.06;4452869;32;20164;-78
2023/12/25 02:16:51;;;;;;;14.43;11.07;;;;;;;6.76;71.77;99188.03;4455648;32;20155;-77
2023/12/25 02:19:28;;;;;;;13.62;11.27;;;;;;;6.78;71.73;99182.69;4454454;32;20280;-77
2023/12/25 02:21:59;;;;;;;13.40;11.93;;;;;;;6.79;71.72;99160.66;4438977;32;20168;-77
2023/12/25 02:24:35;;;;;;;18.25;14.20;;;;;;;7.07;70.90;99170.22;4455537;32;20151;-77
2023/12/25 02:27:07;;;;;;;17.65;13.35;;;;;;;6.85;71.42;99163.75;4453751;32;20447;-78
2023/12/25 02:29:36;;;;;;;18.77;12.70;;;;;;;6.94;71.12;99159.66;4455897;32;20140;-77
2023/12/25 02:32:06;;;;;;;12.48;11.18;;;;;;;7.24;70.36;99158.56;4449244;32;20176;-78
2023/12/25 02:34:35;;;;;;;15.68;12.75;;;;;;;6.99;71.12;99162.84;4440762;32;20192;-78
2023/12/25 02:37:05;;;;;;;14.95;13.05;;;;;;;7.20;70.41;99151.81;4455519;32;20195;-77
2023/12/25 02:39:35;;;;;;;16.05;12.45;;;;;;;7.50;69.48;99159.44;4454513;32;20200;-77
2023/12/25 02:42:09;;;;;;;15.10;12.40;;;;;;;7.19;70.24;99176.47;4445646;32;20159;-77
2023/12/25 02:44:37;;;;;;;14.73;12.13;;;;;;;7.46;69.64;99190.44;4452068;32;20186;-78
2023/12/25 02:47:07;;;;;;;17.35;12.45;;;;;;;7.22;70.36;99182.38;4451699;32;20168;-78
2023/12/25 02:49:37;;;;;;;15.32;12.05;;;;;;;7.25;70.56;99194.53;4451765;32;20190;-78
2023/12/25 02:52:07;;;;;;;16.42;12.80;;;;;;;7.26;70.53;99209.37;4445262;32;20176;-78
2023/12/25 02:54:36;;;;;;;16.83;12.23;;;;;;;7.12;70.98;99216.37;4451686;32;20159;-78
2023/12/25 02:57:05;;;;;;;15.05;11.65;;;;;;;6.96;71.40;99210.44;4451902;32;20683;-78
2023/12/25 02:59:36;;;;;;;18.48;12.02;;;;;;;7.13;71.07;99211.97;4451993;32;20168;-78
2023/12/25 03:02:11;;;;;;;15.55;12.65;;;;;;;7.30;70.25;99224.88;4445708;32;20156;-78
2023/12/25 03:04:41;;;;;;;19.17;12.85;;;;;;;7.12;70.82;99220.81;4451707;32;20168;-78
2023/12/25 03:07:10;;;;;;;17.95;12.10;;;;;;;7.03;71.27;99217.00;4451541;32;20164;-78
2023/12/25 03:09:42;;;;;;;17.73;13.62;;;;;;;7.18;71.04;99219.59;4451662;32;20144;-78
2023/12/25 03:12:11;;;;;;;17.25;13.40;;;;;;;7.13;71.38;99215.47;4445247;32;20176;-78
2023/12/25 03:14:42;;;;;;;16.87;12.37;;;;;;;7.41;70.57;99212.78;4454624;32;20164;-79
2023/12/25 03:17:11;;;;;;;16.87;12.65;;;;;;;7.31;70.75;99199.38;4454684;32;20168;-78
2023/12/25 03:19:40;;;;;;;18.67;13.82;;;;;;;7.42;70.68;99211.81;4454342;32;20152;-77
2023/12/25 03:22:10;;;;;;;18.98;13.05;;;;;;;7.49;70.68;99211.31;4447908;32;20152;-78
2023/12/25 03:24:40;;;;;;;19.85;14.30;;;;;;;7.41;71.12;99205.72;4455406;32;20183;-78
2023/12/25 03:27:09;;;;;;;21.23;14.55;;;;;;;7.61;70.84;99213.12;4454416;32;20282;-78
2023/12/25 03:29:39;;;;;;;17.00;12.63;;;;;;;7.62;70.91;99206.88;4455149;32;20144;-77
2023/12/25 03:32:13;;;;;;;18.50;14.52;;;;;;;7.66;71.07;99199.63;4449034;32;20171;-78
2023/12/25 03:34:46;;;;;;;16.52;12.90;;;;;;;7.85;70.64;99199.19;4455036;32;20164;-78
2023/12/25 03:37:16;;;;;;;18.50;12.95;;;;;;;7.75;70.98;99198.97;4453138;32;20181;-78
2023/12/25 03:39:45;;;;;;;18.90;13.95;;;;;;;7.81;70.82;99203.84;4455068;32;20180;-77
2023/12/25 03:42:17;;;;;;;16.65;12.48;;;;;;;7.71;71.74;99201.94;4447038;32;20144;-77
2023/12/25 03:44:50;;;;;;;19.80;12.13;;;;;;;7.41;73.34;99199.59;4450610;32;20152;-77
2023/12/25 03:47:20;;;;;;;12.30;10.25;;;;;;;7.75;72.88;99185.78;4451701;32;20151;-78
2023/12/25 03:49:50;;;;;;;16.77;11.52;;;;;;;7.77;73.39;99180.44;4451323;32;20189;-78
2023/12/25 03:52:22;;;;;;;;;;;;;;;7.75;74.33;99187.59;4451334;32;20168;-78
2023/12/25 03:54:51;;;;;;;10.82;9.68;;;;;;;7.87;74.49;99187.56;4451420;32;20032;-78
2023/12/25 03:57:20;;;;;;;17.75;10.00;;;;;;;7.80;75.13;99173.16;4451286;32;20167;-78
2023/12/25 03:59:49;;;;;;;13.73;8.38;;;;;;;7.77;76.03;99188.34;4451428;32;20171;-77
2023/12/25 04:02:21;;;;;;;13.98;8.98;;;;;;;7.92;75.52;99183.78;4445333;32;20167;-78
2023/12/25 04:04:51;;;;;;;11.68;8.38;;;;;;;8.19;75.10;99195.03;4451291;32;20160;-78
2023/12/25 04:07:20;;;;;;;10.18;7.35;;;;;;;8.24;74.74;99192.09;4451131;32;20178;-78
2023/12/25 04:09:49;;;;;;;9.50;7.20;;;;;;;8.34;75.13;99198.38;4451174;32;20172;-78
2023/12/25 04:12:19;;;;;;;10.32;7.15;;;;;;;8.49;75.06;99193.84;4445636;32;20164;-78
2023/12/25 04:14:49;;;;;;;9.40;7.22;;;;;;;8.35;75.95;99185.09;4455301;32;20152;-77
2023/12/25 04:17:23;;;;;;;8.38;6.00;;;;;;;8.62;75.25;99184.91;4454123;32;20172;-78
2023/12/25 04:19:53;;;;;;;11.10;5.87;;;;;;;8.83;75.57;99182.53;4454788;32;20189;-78
2023/12/25 04:22:22;;;;;;;7.80;5.85;;;;;;;8.86;76.75;99186.72;4454754;32;20172;-77
2023/12/25 04:24:52;;;;;;;13.00;7.03;;;;;;;9.18;75.33;99192.25;4454251;32;20460;-78
2023/12/25 04:27:21;;;;;;;8.63;5.55;;;;;;;9.17;74.88;99195.03;4452918;32;20140;-78
2023/12/25 04:29:51;;;;;;;7.22;5.43;;;;;;;9.10;75.85;99184.91;4452532;32;20135;-77
2023/12/25 04:32:24;;;;;;;12.32;6.07;;;;;;;9.32;74.98;99188.59;4455579;32;20153;-77
2023/12/25 04:34:54;;;;;;;7.72;5.62;;;;;;;9.31;74.42;99193.03;4454894;32;20627;-78
2023/12/25 04:37:23;;;;;;;8.40;6.05;;;;;;;9.31;74.61;99189.56;4451446;32;20156;-78
2023/12/25 04:39:52;;;;;;;8.68;5.72;;;;;;;9.54;73.47;99187.78;4452397;32;20194;-77
2023/12/25 04:42:23;;;;;;;8.52;5.65;;;;;;;9.43;73.48;99191.28;4451793;32;20167;-78
2023/12/25 04:44:52;;;;;;;10.80;6.15;;;;;;;9.47;73.87;99189.25;4451082;32;20135;-78
2023/12/25 04:47:27;;;;;;;9.90;5.93;;;;;;;9.43;74.61;99183.34;4451380;32;20164;-78
2023/12/25 04:49:56;;;;;;;10.10;6.28;;;;;;;9.56;74.17;99184.06;4450752;32;20171;-77
2023/12/25 04:52:25;;;;;;;8.35;5.65;;;;;;;9.78;72.95;99185.94;4450788;32;20163;-78
2023/12/25 04:54:54;;;;;;;11.00;6.32;;;;;;;9.66;73.35;99186.88;4451078;32;20163;-78
2023/12/25 04:57:23;;;;;;;8.23;5.57;;;;;;;9.77;72.51;99178.94;4444443;32;20164;-78
2023/12/25 04:59:53;;;;;;;7.22;5.07;;;;;;;9.57;73.85;99190.22;4450778;32;20170;-77
2023/12/25 05:02:22;;;;;;;8.43;6.15;;;;;;;9.86;72.94;99193.28;4451243;32;20148;-78
2023/12/25 05:04:54;;;;;;;12.52;7.53;;;;;;;9.77;73.32;99192.16;4450664;32;20167;-78
2023/12/25 05:07:23;;;;;;;10.52;5.72;;;;;;;9.83;73.13;99185.56;4450610;32;20429;-79
2023/12/25 05:09:52;;;;;;;6.87;5.22;;;;;;;9.94;72.43;99196.16;4436261;32;20539;-78
2023/12/25 05:12:21;;;;;;;9.23;6.12;;;;;;;9.84;73.05;99189.91;4436311;32;20144;-78
2023/12/25 05:14:50;;;;;;;6.65;5.07;;;;;;;9.78;73.38;99190.34;4450500;32;20140;-77
2023/12/25 05:17:20;;;;;;;7.93;4.82;;;;;;;9.85;73.90;99191.56;4450811;32;20152;-78
2023/12/25 05:19:49;;;;;;;6.57;4.50;;;;;;;9.82;74.66;99187.38;4450456;32;20442;-78
2023/12/25 05:22:20;;;;;;;7.28;4.53;;;;;;;9.82;74.98;99186.53;4444065;32;20192;-78
2023/12/25 05:24:49;;;;;;;6.43;4.50;;;;;;;9.94;74.65;99195.31;4450349;32;20156;-78
2023/12/25 05:27:18;;;;;;;6.35;4.00;;;;;;;10.20;73.43;99170.28;4450279;32;20164;-78
2023/12/25 05:29:47;;;;;;;7.28;4.22;;;;;;;10.31;72.85;99180.91;4450615;32;20164;-78
2023/12/25 05:32:21;;;;;;;5.20;3.45;;;;;;;10.37;72.56;99176.06;4450190;32;20163;-78
2023/12/25 05:34:50;;;;;;;6.05;4.15;;;;;;;10.17;73.14;99183.75;4450337;32;20184;-78
2023/12/25 05:37:21;;;;;;;5.47;3.72;;;;;;;10.38;72.66;99186.56;4450285;32;20156;-78
2023/12/25 05:39:50;;;;;;;5.47;4.10;;;;;;;10.68;71.43;99179.75;4450248;32;20160;-78
2023/12/25 05:42:20;;;;;;;8.35;4.57;;;;;;;10.50;71.93;99185.56;4450051;32;20152;-78
2023/12/25 05:44:49;;;;;;;7.75;4.10;;;;;;;10.63;71.09;99189.88;4450433;32;20180;-78
2023/12/25 05:47:18;;;;;;;7.82;5.25;;;;;;;10.47;71.67;99192.91;4449961;32;20187;-78
2023/12/25 05:49:47;;;;;;;5.85;4.70;;;;;;;10.63;70.62;99201.31;4449977;32;20167;-78
2023/12/25 05:52:16;;;;;;;7.93;5.10;;;;;;;10.57;70.00;99207.97;4449826;32;20171;-78
2023/12/25 05:54:49;;;;;;;5.87;4.40;;;;;;;10.74;69.07;99211.91;4449760;32;20199;-78
2023/12/25 05:57:18;;;;;;;6.53;5.70;;;;;;;10.63;69.73;99219.03;4449888;32;20259;-78
2023/12/25 05:59:48;;;;;;;8.07;5.47;;;;;;;10.86;68.62;99225.97;4450259;32;20179;-78
2023/12/25 06:02:18;;;;;;;8.10;5.43;;;;;;;10.85;68.39;99211.03;4449472;32;20187;-78
2023/12/25 06:04:47;;;;;;;9.00;5.25;;;;;;;10.29;70.54;99224.34;4449704;32;20175;-78
2023/12/25 06:07:16;;;;;;;7.62;5.12;;;;;;;10.43;70.05;99215.31;4449726;32;20183;-78
2023/12/25 06:09:46;;;;;;;10.52;4.68;;;;;;;10.57;69.38;99207.97;4451237;32;20179;-79
2023/12/25 06:12:17;;;;;;;6.30;4.80;;;;;;;10.28;70.36;99223.50;4451948;32;20147;-78
2023/12/25 06:14:46;;;;;;;9.77;4.87;;;;;;;10.33;70.23;99223.13;4452419;32;20156;-78
2023/12/25 06:17:15;;;;;;;7.10;4.90;;;;;;;10.32;70.21;99219.66;4451915;32;20171;-78
2023/12/25 06:19:45;;;;;;;8.02;4.35;;;;;;;10.40;69.43;99213.75;4451977;32;20143;-78
2023/12/25 06:22:14;;;;;;;8.25;5.07;;;;;;;10.38;69.41;99226.28;4451736;32;20155;-78
2023/12/25 06:24:43;;;;;;;7.03;4.90;;;;;;;10.76;68.09;99238.25;4451831;32;20526;-78
2023/12/25 06:27:12;;;;;;;6.85;5.15;;;;;;;10.78;68.09;99239.81;4452008;32;20179;-78
2023/12/25 06:29:42;;;;;;;10.82;6.15;;;;;;;10.87;67.35;99232.94;4452230;32;20405;-78
2023/12/25 06:32:13;;;;;;;9.80;5.22;;;;;;;10.94;66.63;99235.94;4451974;32;20546;-78
2023/12/25 06:34:42;;;;;;;8.63;4.68;;;;;;;10.91;66.77;99239.66;4451996;32;20207;-78
2023/12/25 06:37:11;;;;;;;6.53;5.15;;;;;;;10.74;67.22;99242.84;4452042;32;20164;-78
2023/12/25 06:39:40;;;;;;;10.05;6.12;;;;;;;10.82;66.71;99246.56;4452025;32;20191;-78
2023/12/25 06:42:09;;;;;;;9.10;5.72;;;;;;;10.58;67.63;99259.13;4436349;32;20267;-77
2023/12/25 06:44:41;;;;;;;7.62;6.22;;;;;;;10.83;66.68;99250.06;4452643;32;20417;-78
2023/12/25 06:47:12;;;;;;;7.50;5.32;;;;;;;10.63;67.53;99246.34;4451848;32;20180;-78
2023/12/25 06:49:41;;;;;;;9.20;5.18;;;;;;;10.67;67.41;99258.38;4451746;32;20168;-78
2023/12/25 06:52:11;;;;;;;7.95;4.68;;;;;;;10.68;67.39;99260.06;4445296;32;20164;-78
2023/12/25 06:54:41;;;;;;;7.50;5.53;;;;;;;10.81;66.62;99268.75;4451762;32;20194;-78
2023/12/25 06:57:11;;;;;;;6.50;5.15;;;;;;;10.68;66.61;99280.41;4451556;32;20439;-78
2023/12/25 06:59:40;;;;;;;9.05;5.53;;;;;;;10.77;66.51;99272.59;4452019;32;20184;-78
2023/12/25 07:02:10;;;;;;;9.43;5.80;;;;;;;10.88;65.91;99277.00;4445141;32;20195;-78
2023/12/25 07:04:40;;;;;;;6.43;4.50;;;;;;;10.63;66.68;99286.09;4451621;32;20168;-79
2023/12/25 07:07:10;;;;;;;8.48;6.32;;;;;;;10.66;66.48;99285.03;4451608;32;20176;-78
2023/12/25 07:09:42;;;;;;;6.85;5.37;;;;;;;10.79;66.15;99289.19;4451533;32;20180;-78
2023/12/25 07:12:11;;;;;;;9.45;6.45;;;;;;;10.86;66.18;99286.06;4445009;32;20160;-78
2023/12/25 07:14:43;;;;;;;7.68;6.10;;;;;;;10.98;65.58;99288.56;4451871;32;20170;-78
2023/12/25 07:17:13;;;;;;;;;;;;;;;10.91;65.85;99287.38;4451867;32;20172;-78
2023/12/25 07:19:43;;;;;;;6.87;5.82;;;;;;;10.93;65.78;99284.59;4451555;32;20043;-78
2023/12/25 07:22:14;;;;;;;10.20;7.27;;;;;;;10.79;66.08;99293.66;4445118;32;20463;-78
2023/12/25 07:24:42;;;;;;;12.00;8.40;;;;;;;10.79;66.12;99294.50;4451938;32;20160;-78
2023/12/25 07:27:11;;;;;;;8.15;5.95;;;;;;;10.93;65.72;99296.06;4451568;32;20179;-78
2023/12/25 07:29:44;;;;;;;;;;;;;;;10.85;66.07;99298.50;4452481;32;20163;-78
2023/12/25 07:32:12;;;;;;;9.82;7.18;;;;;;;10.93;65.48;99290.75;4445196;32;20059;-78
2023/12/25 07:34:43;;;;;;;11.02;7.45;;;;;;;10.79;65.72;99291.84;4451526;32;20159;-78
2023/12/25 07:37:12;;;;;;;11.55;7.40;;;;;;;10.47;66.73;99291.75;4451228;32;20167;-78
2023/12/25 07:39:42;;;;;;;8.23;5.93;;;;;;;10.64;66.42;99287.75;4451394;32;20163;-78
2023/12/25 07:42:11;;;;;;;10.43;6.43;;;;;;;10.74;66.00;99287.91;4444811;32;20457;-78
2023/12/25 07:44:41;;;;;;;10.82;6.95;;;;;;;10.83;65.70;99301.25;4451728;32;20144;-78
2023/12/25 07:47:10;;;;;;;7.82;5.90;;;;;;;10.96;65.32;99301.09;4451337;32;20189;-78
2023/12/25 07:49:39;;;;;;;10.85;6.75;;;;;;;10.89;65.47;99305.22;4451352;32;20602;-78
2023/12/25 07:52:09;;;;;;;9.80;8.10;;;;;;;10.80;65.70;99305.94;4444922;32;20444;-78
2023/12/25 07:54:39;;;;;;;9.27;7.40;;;;;;;10.83;65.76;99295.94;4437031;32;20196;-78
2023/12/25 07:57:09;;;;;;;12.68;7.97;;;;;;;10.92;65.13;99304.97;4451172;32;20473;-78
2023/12/25 07:59:38;;;;;;;14.48;9.00;;;;;;;10.96;65.07;99314.34;4451604;32;20580;-78
2023/12/25 08:02:07;;;;;;;11.43;9.10;;;;;;;10.90;65.24;99320.16;4444763;32;20152;-78
2023/12/25 08:04:36;;;;;;;13.80;8.13;;;;;;;10.96;65.17;99322.31;4451222;32;20159;-78
2023/12/25 08:07:05;;;;;;;11.57;7.60;;;;;;;10.83;65.63;99326.91;4451128;32;20504;-78
2023/12/25 08:09:35;;;;;;;8.98;6.55;;;;;;;10.96;65.38;99332.06;4451223;32;20159;-78
2023/12/25 08:12:06;;;;;;;13.02;6.90;;;;;;;10.99;65.25;99327.38;4444644;32;20187;-78
2023/12/25 08:14:35;;;;;;;10.57;6.22;;;;;;;10.89;65.68;99323.78;4451473;32;20159;-78
2023/12/25 08:17:05;;;;;;;11.68;7.12;;;;;;;10.94;65.50;99328.72;4451350;32;20163;-78
2023/12/25 08:19:34;;;;;;;9.57;5.97;;;;;;;11.19;64.80;99336.38;4451120;32;20169;-78
2023/12/25 08:22:04;;;;;;;12.20;5.65;;;;;;;11.31;64.36;99334.53;4444539;32;20161;-78
2023/12/25 08:24:35;;;;;;;7.65;5.50;;;;;;;11.11;65.06;99343.25;4450794;32;20163;-78
2023/12/25 08:27:05;;;;;;;9.68;6.12;;;;;;;11.18;64.75;99349.75;4450923;32;20159;-79
2023/12/25 08:29:34;;;;;;;16.12;7.32;;;;;;;11.27;64.66;99355.16;4451161;32;20157;-78
2023/12/25 08:32:04;;;;;;;13.25;7.12;;;;;;;11.26;64.81;99353.47;4433942;32;20163;-78
2023/12/25 08:34:37;;;;;;;12.35;6.65;;;;;;;11.25;64.88;99351.78;4450867;32;20171;-78
2023/12/25 08:37:06;;;;;;;9.02;6.70;;;;;;;11.43;64.51;99351.25;4451087;32;20152;-78
2023/12/25 08:39:38;;;;;;;15.60;5.82;;;;;;;11.18;65.08;99355.06;4450939;32;20152;-78
2023/12/25 08:42:07;;;;;;;17.92;6.45;;;;;;;11.28;64.91;99356.00;4444926;32;20155;-78
2023/12/25 08:44:36;;;;;;;11.50;7.30;;;;;;;11.46;70.55;99351.84;4451199;32;20171;-78
2023/12/25 08:47:06;;;;;;;13.02;8.50;;;;;;;11.91;69.05;99367.63;4436530;32;20167;-78
2023/12/25 08:49:37;;;;;;;21.92;11.90;;;;;;;12.14;65.08;99362.22;4450742;32;20160;-78
2023/12/25 08:52:07;;;;;;;70.37;39.22;;;;;;;12.44;64.54;99377.38;4444452;32;20152;-78
2023/12/25 08:54:37;;;;;;;36.28;21.33;;;;;;;12.68;63.12;99387.72;4450750;32;20441;-78
2023/12/25 08:57:07;;;;;;;51.80;32.63;;;;;;;12.58;61.23;99384.16;4450685;32;20180;-78
2023/12/25 08:59:37;;;;;;;203.62;104.28;;;;;;;12.37;62.09;99393.00;4451043;32;20148;-78
2023/12/25 09:02:06;;;;;;;110.90;63.10;;;;;;;12.22;nan;99392.47;4444224;32;20582;-78
2023/12/25 09:04:37;;;;;;;53.90;31.87;;;;;;;12.04;63.64;99399.34;4450623;32;20168;-79
2023/12/25 09:07:07;;;;;;;14.85;10.10;;;;;;;11.87;64.42;99391.91;4450667;32;20547;-78
2023/12/25 09:09:40;;;;;;;12.93;6.87;;;;;;;11.80;63.80;99380.94;4450593;32;20172;-78
2023/12/25 09:12:08;;;;;;;;;;;;;;;11.84;63.78;99381.53;4444498;32;20522;-78
2023/12/25 09:14:39;;;;;;;21.45;10.95;;;;;;;12.14;64.13;99363.06;4450813;32;20035;-78
2023/12/25 09:17:08;;;;;;;16.92;11.68;;;;;;;11.78;66.10;99354.50;4450494;32;20695;-78
2023/12/25 09:19:38;;;;;;;18.67;14.87;;;;;;;11.73;66.62;99354.06;4450206;32;20168;-78
2023/12/25 09:22:08;;;;;;;17.65;10.35;;;;;;;11.94;65.92;99364.72;4443762;32;20555;-78
2023/12/25 09:24:38;;;;;;;13.55;8.93;;;;;;;11.94;65.73;99356.75;4450874;32;20183;-78
2023/12/25 09:27:09;;;;;;;13.93;10.02;;;;;;;11.94;65.80;99366.53;4450382;32;20148;-77
2023/12/25 09:29:38;;;;;;;19.60;11.60;;;;;;;11.98;65.74;99373.28;4450760;32;20136;-78
2023/12/25 09:32:08;;;;;;;17.95;13.38;;;;;;;12.22;65.08;99378.34;4444078;32;20554;-78
2023/12/25 09:34:40;;;;;;;30.02;24.55;;;;;;;12.04;65.53;99380.75;4450156;32;20175;-78
2023/12/25 09:37:25;;;;;;;23.90;16.20;;;;;;;12.07;65.52;99391.94;4450183;32;20171;-78
2023/12/25 09:39:55;;;;;;;14.10;11.68;;;;;;;12.25;64.88;99388.72;4450142;32;20160;-77
2023/12/25 09:42:29;;;;;;;18.48;11.80;;;;;;;12.14;64.88;99381.66;4450065;32;20556;-77
2023/12/25 09:44:58;;;;;;;13.35;9.88;;;;;;;11.77;66.16;99375.87;4451845;32;20171;-77
2023/12/25 09:47:28;;;;;;;16.70;11.68;;;;;;;11.91;66.23;99372.09;4452418;32;20148;-79
2023/12/25 09:49:58;;;;;;;13.60;12.27;;;;;;;11.87;66.33;99373.31;4451769;32;20521;-78
2023/12/25 09:52:27;;;;;;;9.60;8.60;;;;;;;11.89;66.10;99374.91;4446301;32;20164;-78
2023/12/25 09:54:56;;;;;;;9.85;8.75;;;;;;;12.29;64.79;99369.72;4452188;32;20163;-78
2023/12/25 09:57:27;;;;;;;12.63;9.23;;;;;;;12.39;64.92;99385.72;4452193;32;20532;-78
2023/12/25 09:59:58;;;;;;;11.05;7.47;;;;;;;11.90;66.19;99371.25;4451885;32;20508;-77
2023/12/25 10:02:29;;;;;;;5.85;4.93;;;;;;;11.84;64.73;99363.81;4432352;32;20197;-77
2023/12/25 10:04:59;;;;;;;5.72;3.40;;;;;;;11.90;64.58;99360.63;4451780;32;20171;-78
2023/12/25 10:07:28;;;;;;;4.62;3.70;;;;;;;12.18;63.11;99353.03;4452021;32;20560;-78
2023/12/25 10:09:58;;;;;;;5.80;4.10;;;;;;;12.35;62.88;99363.03;4451527;32;20160;-79
2023/12/25 10:12:27;;;;;;;5.05;3.83;;;;;;;12.32;62.93;99357.19;4446474;32;20176;-77
2023/12/25 10:14:58;;;;;;;6.90;4.47;;;;;;;12.57;62.00;99339.97;4452423;32;20155;-77
2023/12/25 10:17:28;;;;;;;11.10;4.75;;;;;;;12.56;63.13;99339.13;4452910;32;20180;-77
2023/12/25 10:20:00;;;;;;;13.07;7.45;;;;;;;12.97;62.15;99334.66;4452321;32;20143;-77
2023/12/25 10:22:31;;;;;;;8.02;6.53;;;;;;;12.98;62.87;99334.50;4447002;32;20544;-77
2023/12/25 10:25:12;;;;;;;10.35;6.28;;;;;;;12.91;62.48;99340.53;4452220;32;20160;-78
2023/12/25 10:27:43;;;;;;;9.90;7.35;;;;;;;13.00;62.43;99340.56;4452046;32;20160;-78
2023/12/25 10:30:18;;;;;;;7.80;5.53;;;;;;;13.08;62.29;99347.84;4450549;32;20152;-77
2023/12/25 10:32:48;;;;;;;9.80;6.60;;;;;;;13.07;62.42;99340.03;4449000;32;20515;-78
2023/12/25 10:35:19;;;;;;;10.35;5.70;;;;;;;13.23;61.66;99356.34;4451827;32;20163;-78
2023/12/25 10:37:48;;;;;;;10.50;6.18;;;;;;;13.07;62.25;99355.97;4451975;32;20535;-78
2023/12/25 10:40:20;;;;;;;10.45;6.45;;;;;;;12.78;61.97;99367.31;4451761;32;20559;-77
2023/12/25 10:42:51;;;;;;;9.10;6.68;;;;;;;12.66;62.65;99371.06;4452185;32;20543;-78
2023/12/25 10:45:24;;;;;;;9.95;6.45;;;;;;;12.98;61.73;99368.25;4451794;32;20477;-78
2023/12/25 10:47:55;;;;;;;8.25;6.68;;;;;;;12.99;61.50;99354.84;4451931;32;20156;-77
2023/12/25 10:50:36;;;;;;;13.68;8.75;;;;;;;13.05;61.67;99348.97;4451919;32;20160;-78
2023/12/25 10:53:08;;;;;;;12.73;8.55;;;;;;;12.93;61.49;99355.34;4451817;32;20183;-78
2023/12/25 10:55:38;;;;;;;13.50;7.82;;;;;;;12.88;61.61;99346.13;4451432;32;20147;-78
2023/12/25 10:58:13;;;;;;;11.32;7.50;;;;;;;12.80;61.15;99330.84;4451792;32;20153;-78
2023/12/25 11:00:50;;;;;;;11.23;8.95;;;;;;;12.61;61.54;99333.41;4451607;32;20156;-79
2023/12/25 11:03:20;;;;;;;10.88;7.05;;;;;;;12.55;61.35;99330.31;4451362;32;20155;-77
2023/12/25 11:05:49;;;;;;;11.35;7.07;;;;;;;12.50;61.33;99335.16;4452140;32;20439;-78
2023/12/25 11:08:19;;;;;;;11.75;7.28;;;;;;;12.73;60.73;99340.31;4451372;32;20179;-77
2023/12/25 11:11:03;;;;;;;14.57;7.43;;;;;;;12.77;60.49;99349.69;4451519;32;20426;-78
2023/12/25 11:13:32;;;;;;;16.23;7.07;;;;;;;12.65;60.86;99358.75;4451389;32;20529;-78
2023/12/25 11:16:03;;;;;;;18.77;14.32;;;;;;;12.86;60.12;99353.37;4451545;32;20523;-78
2023/12/25 11:18:36;;;;;;;11.55;10.07;;;;;;;12.84;60.54;99348.19;4451641;32;20163;-77
2023/12/25 11:21:06;;;;;;;;;;;;;;;12.96;60.88;99356.91;4451878;32;20180;-77
2023/12/25 11:23:38;;;;;;;9.35;7.03;;;;;;;13.22;60.46;99359.91;4451931;32;20319;-78
2023/12/25 11:26:08;;;;;;;10.50;6.78;;;;;;;12.88;60.79;99362.91;4451562;32;20180;-77
2023/12/25 11:28:41;;;;;;;14.10;7.12;;;;;;;12.71;60.40;99353.75;4451365;32;20532;-77
2023/12/25 11:31:16;;;;;;;14.95;8.55;;;;;;;12.92;60.82;99336.88;4451319;32;20167;-77
2023/12/25 11:33:47;;;;;;;12.43;8.32;;;;;;;13.11;61.10;99344.94;4451343;32;20211;-77
2023/12/25 11:36:17;;;;;;;11.85;7.85;;;;;;;13.34;60.78;99350.03;4451664;32;20535;-77
2023/12/25 11:38:54;;;;;;;12.18;8.57;;;;;;;13.37;60.79;99336.47;4451703;32;20172;-77
2023/12/25 11:41:24;;;;;;;14.43;7.07;;;;;;;13.55;60.34;99333.97;4451253;32;20163;-77
2023/12/25 11:43:53;;;;;;;15.27;8.35;;;;;;;13.43;60.84;99330.59;4451425;32;20187;-77
2023/12/25 11:46:31;;;;;;;14.75;8.07;;;;;;;13.35;61.02;99354.41;4451186;32;20175;-77